Time;durP1;ratioP1;P1;durP2;ratioP2;P2;SDS_P1;SDS_P2;PMS_P1;PMS_P2;Temp;Humidity;BMP_temperature;BMP_pressure;BME280_temperature;BME280_humidity;BME280_pressure;Samples;Min_cycle;Max_cycle;Signal;HPM_P1;HPM_P2
2024/04/02 00:01:38;;;;;;;39.95;37.85;;;;;;;;;;5056998;28;20036;-59
2024/04/02 00:04:12;;;;;;;36.40;34.50;;;;;;;;;;5057448;28;20059;-59
2024/04/02 00:06:38;;;;;;;35.92;34.08;;;;;;;;;;5057527;28;20489;-59
2024/04/02 00:09:03;;;;;;;38.35;36.25;;;;;;;;;;5058993;28;20123;-59
2024/04/02 00:11:30;;;;;;;40.20;37.92;;;;;;;;;;5060532;28;20119;-59
2024/04/02 00:13:55;;;;;;;37.30;35.38;;;;;;;;;;5057728;28;20033;-59
2024/04/02 00:16:21;;;;;;;35.45;33.65;;;;;;;;;;5060850;28;20043;-58
2024/04/02 00:18:46;;;;;;;36.88;34.97;;;;;;;;;;5057386;28;20028;-57
2024/04/02 00:21:13;;;;;;;36.65;34.75;;;;;;;;;;5058771;28;20041;-59
2024/04/02 00:23:40;;;;;;;36.72;34.83;;;;;;;;;;5059761;28;20742;-59
2024/04/02 00:26:05;;;;;;;35.45;33.60;;;;;;;;;;5060203;28;20508;-59
2024/04/02 00:28:31;;;;;;;35.35;33.53;;;;;;;;;;5041253;28;20033;-59
2024/04/02 00:31:00;;;;;;;36.65;34.75;;;;;;;;;;5041912;28;20043;-59
2024/04/02 00:33:26;;;;;;;38.42;36.42;;;;;;;;;;5057044;28;20082;-56
2024/04/02 00:36:06;;;;;;;38.42;36.45;;;;;;;;;;5059838;28;20056;-56
2024/04/02 00:38:32;;;;;;;38.00;36.08;;;;;;;;;;5059854;28;20395;-58
2024/04/02 00:40:58;;;;;;;37.53;35.63;;;;;;;;;;5058753;28;20116;-54
2024/04/02 00:43:24;;;;;;;39.33;37.33;;;;;;;;;;5041704;28;20119;-57
2024/04/02 00:45:50;;;;;;;40.80;38.70;;;;;;;;;;5060829;28;20037;-57
2024/04/02 00:48:16;;;;;;;37.58;35.63;;;;;;;;;;5058870;28;20381;-56
2024/04/02 00:50:42;;;;;;;36.00;34.20;;;;;;;;;;5044940;28;20102;-57
2024/04/02 00:53:08;;;;;;;35.47;33.67;;;;;;;;;;5056497;28;20523;-55
2024/04/02 00:55:37;;;;;;;36.63;34.72;;;;;;;;;;5041999;28;20470;-54
2024/04/02 00:58:05;;;;;;;39.45;37.45;;;;;;;;;;5058438;28;20032;-57
2024/04/02 01:00:30;;;;;;;39.92;37.92;;;;;;;;;;5043726;28;20037;-55
2024/04/02 01:02:56;;;;;;;36.88;35.00;;;;;;;;;;5057926;28;20438;-57
2024/04/02 01:05:21;;;;;;;40.55;38.47;;;;;;;;;;5058369;28;20040;-57
2024/04/02 01:07:46;;;;;;;36.35;34.47;;;;;;;;;;5043189;28;20037;-56
2024/04/02 01:10:12;;;;;;;37.22;35.33;;;;;;;;;;5060435;28;20051;-57
2024/04/02 01:12:37;;;;;;;37.28;35.38;;;;;;;;;;5054525;28;20045;-57
2024/04/02 01:15:03;;;;;;;37.70;35.80;;;;;;;;;;5056409;28;20446;-54
2024/04/02 01:17:28;;;;;;;36.42;34.53;;;;;;;;;;5059694;28;20051;-59
2024/04/02 01:19:54;;;;;;;38.55;36.55;;;;;;;;;;5057490;28;20036;-56
2024/04/02 01:22:19;;;;;;;39.40;37.40;;;;;;;;;;5057126;28;20040;-59
2024/04/02 01:24:53;;;;;;;37.28;35.25;;;;;;;;;;5058320;28;20040;-59
2024/04/02 01:27:18;;;;;;;36.15;34.30;;;;;;;;;;5060728;28;20051;-59
2024/04/02 01:29:43;;;;;;;34.83;33.03;;;;;;;;;;5059603;28;20385;-59
2024/04/02 01:32:09;;;;;;;34.13;32.33;;;;;;;;;;5057566;28;20466;-56
2024/04/02 01:34:34;;;;;;;35.97;34.10;;;;;;;;;;5056169;28;20032;-57
2024/04/02 01:37:00;;;;;;;38.65;36.65;;;;;;;;;;5060316;28;20032;-57
2024/04/02 01:39:25;;;;;;;38.00;35.97;;;;;;;;;;5046132;28;20040;-55
2024/04/02 01:41:50;;;;;;;39.60;37.60;;;;;;;;;;5057339;28;20127;-57
2024/04/02 01:44:15;;;;;;;40.55;38.47;;;;;;;;;;5056039;28;20028;-54
2024/04/02 01:46:41;;;;;;;38.30;36.30;;;;;;;;;;5063178;28;20386;-57
2024/04/02 01:49:06;;;;;;;39.63;37.63;;;;;;;;;;5057728;28;20528;-59
2024/04/02 01:51:31;;;;;;;40.25;38.15;;;;;;;;;;5058776;28;20098;-59
2024/04/02 01:53:57;;;;;;;36.05;34.20;;;;;;;;;;5053957;28;20040;-56
2024/04/02 01:56:22;;;;;;;37.83;35.92;;;;;;;;;;5057559;28;20098;-57
2024/04/02 01:58:47;;;;;;;37.47;35.58;;;;;;;;;;5056524;28;20021;-58
2024/04/02 02:01:13;;;;;;;37.97;36.05;;;;;;;;;;5056013;28;20037;-56
2024/04/02 02:03:38;;;;;;;38.58;36.58;;;;;;;;;;5054520;28;20037;-57
2024/04/02 02:06:03;;;;;;;34.03;32.25;;;;;;;;;;5057063;28;20035;-57
2024/04/02 02:08:30;;;;;;;35.17;33.38;;;;;;;;;;5056415;28;20108;-58
2024/04/02 02:10:55;;;;;;;35.88;34.08;;;;;;;;;;5055391;28;20046;-57
2024/04/02 02:13:21;;;;;;;33.53;31.83;;;;;;;;;;5056403;28;20033;-56
2024/04/02 02:15:56;;;;;;;33.58;31.88;;;;;;;;;;5059295;28;20607;-59
2024/04/02 02:18:22;;;;;;;36.00;34.17;;;;;;;;;;5056763;28;20040;-60
2024/04/02 02:20:47;;;;;;;34.70;32.90;;;;;;;;;;5057314;28;20403;-58
2024/04/02 02:23:12;;;;;;;33.45;31.75;;;;;;;;;;5056746;28;20115;-57
2024/04/02 02:25:37;;;;;;;32.20;30.52;;;;;;;;;;5059251;28;20051;-56
2024/04/02 02:28:03;;;;;;;31.20;29.60;;;;;;;;;;5048694;28;20500;-59
2024/04/02 02:30:28;;;;;;;27.98;26.48;;;;;;;;;;5062926;28;20750;-59
2024/04/02 02:32:54;;;;;;;28.95;27.45;;;;;;;;;;5059113;28;20051;-60
2024/04/02 02:35:19;;;;;;;29.90;28.35;;;;;;;;;;5061396;28;20102;-57
2024/04/02 02:37:44;;;;;;;30.17;28.58;;;;;;;;;;5058999;28;20033;-57
2024/04/02 02:40:10;;;;;;;29.33;27.83;;;;;;;;;;5060070;28;20040;-60
2024/04/02 02:42:35;;;;;;;27.30;25.90;;;;;;;;;;5050276;28;20036;-59
2024/04/02 02:45:00;;;;;;;27.70;26.23;;;;;;;;;;5058816;28;20062;-59
2024/04/02 02:47:26;;;;;;;27.30;25.90;;;;;;;;;;5061155;28;20044;-59
2024/04/02 02:49:51;;;;;;;27.30;25.90;;;;;;;;;;5064481;28;20059;-59
2024/04/02 02:52:16;;;;;;;33.45;31.75;;;;;;;;;;5059114;28;20037;-59
2024/04/02 02:54:41;;;;;;;29.95;28.30;;;;;;;;;;5061793;28;20071;-59
2024/04/02 02:57:07;;;;;;;28.83;27.33;;;;;;;;;;5061804;28;20040;-59
2024/04/02 02:59:32;;;;;;;31.38;29.77;;;;;;;;;;5062628;28;20470;-59
2024/04/02 03:01:58;;;;;;;32.65;30.95;;;;;;;;;;5060068;28;20075;-59
2024/04/02 03:04:23;;;;;;;32.55;30.85;;;;;;;;;;5058165;28;20417;-59
2024/04/02 03:06:48;;;;;;;36.00;34.17;;;;;;;;;;5043509;28;20056;-59
2024/04/02 03:09:13;;;;;;;32.50;30.80;;;;;;;;;;5059568;28;20061;-59
2024/04/02 03:11:39;;;;;;;34.35;32.55;;;;;;;;;;5060106;28;20143;-59
2024/04/02 03:14:04;;;;;;;31.17;29.58;;;;;;;;;;5060124;28;20453;-59
2024/04/02 03:16:30;;;;;;;29.35;27.85;;;;;;;;;;5061677;28;20374;-59
2024/04/02 03:18:56;;;;;;;31.25;29.65;;;;;;;;;;5059305;28;20048;-59
2024/04/02 03:21:21;;;;;;;31.60;30.00;;;;;;;;;;5060278;28;20037;-59
2024/04/02 03:23:47;;;;;;;32.42;30.73;;;;;;;;;;5059532;28;20118;-56
2024/04/02 03:26:13;;;;;;;35.50;33.70;;;;;;;;;;5059228;28;20060;-55
2024/04/02 03:28:39;;;;;;;29.55;27.95;;;;;;;;;;5059961;28;20036;-57
2024/04/02 03:31:04;;;;;;;30.50;28.90;;;;;;;;;;5060127;28;20032;-57
2024/04/02 03:33:30;;;;;;;30.38;28.77;;;;;;;;;;5058678;28;20485;-55
2024/04/02 03:36:05;;;;;;;32.38;30.67;;;;;;;;;;5062644;28;20055;-55
2024/04/02 03:38:32;;;;;;;32.50;30.80;;;;;;;;;;5056525;28;20035;-56
2024/04/02 03:41:08;;;;;;;32.08;30.38;;;;;;;;;;5060179;28;20071;-55
2024/04/02 03:43:33;;;;;;;27.80;26.35;;;;;;;;;;5043936;28;20124;-56
2024/04/02 03:46:05;;;;;;;31.33;29.63;;;;;;;;;;5060074;28;20115;-59
2024/04/02 03:48:30;;;;;;;28.92;27.42;;;;;;;;;;5059275;28;20052;-55
2024/04/02 03:50:55;;;;;;;29.30;27.80;;;;;;;;;;5061453;28;20465;-54
2024/04/02 03:53:21;;;;;;;30.08;28.48;;;;;;;;;;5040064;28;20044;-56
2024/04/02 03:55:46;;;;;;;31.58;29.98;;;;;;;;;;5048011;28;20074;-58
2024/04/02 03:58:11;;;;;;;31.42;29.83;;;;;;;;;;5048162;28;20119;-55
2024/04/02 04:00:41;;;;;;;29.02;27.33;;;;;;;;;;5060721;28;20131;-57
2024/04/02 04:03:07;;;;;;;30.00;28.42;;;;;;;;;;5057847;28;20431;-56
2024/04/02 04:05:33;;;;;;;26.77;25.17;;;;;;;;;;5057583;28;20025;-56
2024/04/02 04:07:58;;;;;;;26.95;25.55;;;;;;;;;;5058803;28;20037;-57
2024/04/02 04:10:23;;;;;;;26.23;24.83;;;;;;;;;;5059410;28;20033;-59
2024/04/02 04:12:49;;;;;;;27.27;25.60;;;;;;;;;;5060360;28;20528;-57
2024/04/02 04:15:14;;;;;;;27.80;26.35;;;;;;;;;;5058776;28;20387;-58
2024/04/02 04:17:39;;;;;;;25.95;24.55;;;;;;;;;;5059291;28;20059;-56
2024/04/02 04:20:07;;;;;;;25.40;24.10;;;;;;;;;;5059356;28;20051;-59
2024/04/02 04:22:32;;;;;;;25.95;24.55;;;;;;;;;;5041968;28;20097;-59
2024/04/02 04:25:02;;;;;;;25.55;24.15;;;;;;;;;;5059309;28;20141;-57
2024/04/02 04:27:32;;;;;;;26.35;24.95;;;;;;;;;;5059716;28;20040;-57
2024/04/02 04:30:00;;;;;;;26.48;25.08;;;;;;;;;;5056746;28;20032;-57
2024/04/02 04:32:26;;;;;;;26.90;25.50;;;;;;;;;;5058116;28;20059;-59
2024/04/02 04:34:52;;;;;;;25.25;23.95;;;;;;;;;;5058475;28;20032;-55
2024/04/02 04:37:17;;;;;;;27.27;25.77;;;;;;;;;;5059254;28;20081;-56
2024/04/02 04:39:43;;;;;;;28.13;26.63;;;;;;;;;;5059332;28;20044;-57
2024/04/02 04:42:08;;;;;;;28.15;26.63;;;;;;;;;;5061355;28;20051;-55
2024/04/02 04:44:33;;;;;;;27.98;26.48;;;;;;;;;;5060041;28;20044;-59
2024/04/02 04:46:59;;;;;;;27.13;25.73;;;;;;;;;;5042319;28;20029;-56
2024/04/02 04:49:25;;;;;;;25.75;24.40;;;;;;;;;;5060937;28;20047;-56
2024/04/02 04:51:50;;;;;;;25.58;24.23;;;;;;;;;;5060508;28;20040;-59
2024/04/02 04:54:15;;;;;;;25.15;23.85;;;;;;;;;;5060522;28;20370;-60
2024/04/02 04:56:41;;;;;;;24.00;22.70;;;;;;;;;;5058927;28;20035;-56
2024/04/02 04:59:06;;;;;;;27.65;26.15;;;;;;;;;;5059021;28;20028;-58
2024/04/02 05:01:31;;;;;;;25.42;24.10;;;;;;;;;;5057518;28;20032;-56
2024/04/02 05:03:56;;;;;;;29.13;27.63;;;;;;;;;;5058245;28;20047;-56
2024/04/02 05:06:22;;;;;;;29.33;27.73;;;;;;;;;;5057320;28;20044;-59
2024/04/02 05:08:47;;;;;;;30.77;29.17;;;;;;;;;;5057471;28;20076;-59
2024/04/02 05:11:12;;;;;;;27.40;25.98;;;;;;;;;;5058048;28;20055;-57
2024/04/02 05:13:40;;;;;;;27.55;26.13;;;;;;;;;;5056463;28;20162;-59
2024/04/02 05:16:06;;;;;;;28.92;27.42;;;;;;;;;;5057931;28;20044;-59
2024/04/02 05:18:35;;;;;;;30.33;28.45;;;;;;;;;;5058513;28;20106;-57
2024/04/02 05:21:00;;;;;;;29.73;28.23;;;;;;;;;;5057220;28;20032;-59
2024/04/02 05:23:29;;;;;;;30.45;28.88;;;;;;;;;;5058907;28;20051;-57
2024/04/02 05:26:00;;;;;;;29.13;27.63;;;;;;;;;;5060436;28;20056;-59
2024/04/02 05:28:26;;;;;;;30.42;28.83;;;;;;;;;;5057237;28;20032;-59
2024/04/02 05:30:53;;;;;;;35.47;33.67;;;;;;;;;;5058743;28;20044;-58
2024/04/02 05:33:18;;;;;;;30.65;28.90;;;;;;;;;;5056231;28;20431;-58
2024/04/02 05:35:44;;;;;;;30.60;29.00;;;;;;;;;;5040476;28;20029;-56
2024/04/02 05:38:11;;;;;;;30.23;28.63;;;;;;;;;;5056849;28;20033;-57
2024/04/02 05:40:36;;;;;;;33.65;31.95;;;;;;;;;;5057004;28;20145;-57
2024/04/02 05:43:02;;;;;;;33.80;32.03;;;;;;;;;;5056482;28;20041;-59
2024/04/02 05:45:27;;;;;;;35.92;34.13;;;;;;;;;;5056799;28;20048;-59
2024/04/02 05:47:53;;;;;;;36.95;35.05;;;;;;;;;;5057301;28;20036;-57
2024/04/02 05:50:18;;;;;;;35.78;33.97;;;;;;;;;;5056402;28;20032;-59
2024/04/02 05:52:44;;;;;;;34.97;33.17;;;;;;;;;;5055173;28;20623;-59
2024/04/02 05:55:09;;;;;;;36.15;34.15;;;;;;;;;;5058679;28;20065;-53
2024/04/02 05:57:35;;;;;;;35.83;34.03;;;;;;;;;;5056840;28;20441;-55
2024/04/02 06:00:01;;;;;;;37.40;35.50;;;;;;;;;;5058496;28;20039;-58
2024/04/02 06:02:26;;;;;;;36.47;34.58;;;;;;;;;;5039969;28;20030;-57
2024/04/02 06:04:51;;;;;;;36.22;34.35;;;;;;;;;;5056431;28;20037;-59
2024/04/02 06:07:17;;;;;;;37.88;35.92;;;;;;;;;;5058296;28;20048;-57
2024/04/02 06:09:42;;;;;;;37.55;35.53;;;;;;;;;;5039235;28;20040;-59
2024/04/02 06:12:08;;;;;;;31.73;30.02;;;;;;;;;;5059300;28;20032;-58
2024/04/02 06:14:33;;;;;;;34.67;32.88;;;;;;;;;;5044358;28;20033;-57
2024/04/02 06:16:59;;;;;;;31.95;30.27;;;;;;;;;;5060928;28;20059;-59
2024/04/02 06:19:25;;;;;;;34.97;33.17;;;;;;;;;;5058755;28;20650;-59
2024/04/02 06:21:50;;;;;;;35.40;33.60;;;;;;;;;;5058722;28;20513;-56
2024/04/02 06:24:15;;;;;;;31.08;29.48;;;;;;;;;;5060623;28;20041;-60
2024/04/02 06:26:41;;;;;;;28.17;26.67;;;;;;;;;;5059682;28;20774;-58
2024/04/02 06:29:06;;;;;;;33.95;32.25;;;;;;;;;;5060401;28;20041;-57
2024/04/02 06:31:32;;;;;;;32.78;31.08;;;;;;;;;;5058924;28;20044;-58
2024/04/02 06:33:57;;;;;;;31.63;29.95;;;;;;;;;;5061240;28;20050;-58
2024/04/02 06:36:23;;;;;;;28.30;26.77;;;;;;;;;;5060248;28;20116;-58
2024/04/02 06:38:48;;;;;;;27.88;26.40;;;;;;;;;;5057773;28;20547;-57
2024/04/02 06:41:14;;;;;;;28.98;27.48;;;;;;;;;;5059979;28;20070;-56
2024/04/02 06:43:40;;;;;;;28.35;26.85;;;;;;;;;;5059810;28;20032;-58
2024/04/02 06:46:06;;;;;;;28.77;27.27;;;;;;;;;;5057952;28;20032;-59
2024/04/02 06:48:31;;;;;;;27.88;26.42;;;;;;;;;;5060414;28;20875;-59
2024/04/02 06:51:04;;;;;;;29.95;28.33;;;;;;;;;;5060738;28;20056;-58
2024/04/02 06:53:31;;;;;;;28.13;26.65;;;;;;;;;;5058097;28;20044;-58
2024/04/02 06:55:57;;;;;;;29.17;27.67;;;;;;;;;;5060838;28;20025;-57
2024/04/02 06:58:22;;;;;;;28.55;27.05;;;;;;;;;;5061013;28;20063;-58
2024/04/02 07:00:49;;;;;;;31.98;30.33;;;;;;;;;;5044193;28;20060;-59
2024/04/02 07:03:17;;;;;;;31.65;30.05;;;;;;;;;;5027272;28;20047;-60
2024/04/02 07:05:46;;;;;;;34.97;33.17;;;;;;;;;;5060323;28;20036;-60
2024/04/02 07:08:11;;;;;;;32.75;31.05;;;;;;;;;;5056417;28;20040;-60
2024/04/02 07:10:44;;;;;;;31.77;30.13;;;;;;;;;;5059528;28;20029;-60
2024/04/02 07:13:14;;;;;;;35.35;33.55;;;;;;;;;;5059292;28;20374;-60
2024/04/02 07:15:41;;;;;;;37.45;35.53;;;;;;;;;;5061729;28;20039;-60
2024/04/02 07:18:06;;;;;;;38.90;36.90;;;;;;;;;;5062794;28;20480;-60
2024/04/02 07:20:32;;;;;;;40.13;37.55;;;;;;;;;;5062314;28;20056;-60
2024/04/02 07:22:59;;;;;;;41.80;39.67;;;;;;;;;;5064066;28;20633;-60
2024/04/02 07:25:25;;;;;;;45.00;42.70;;;;;;;;;;5063533;28;20037;-60
2024/04/02 07:27:50;;;;;;;35.53;33.67;;;;;;;;;;5060927;28;20077;-60
2024/04/02 07:30:16;;;;;;;40.95;38.83;;;;;;;;;;5045501;28;20028;-60
2024/04/02 07:32:41;;;;;;;42.08;39.92;;;;;;;;;;5061295;28;20044;-59
2024/04/02 07:35:06;;;;;;;51.83;49.20;;;;;;;;;;5062290;28;20141;-59
2024/04/02 07:37:32;;;;;;;61.25;58.15;;;;;;;;;;5062277;28;20040;-60
2024/04/02 07:39:58;;;;;;;72.53;68.88;;;;;;;;;;5063590;28;20043;-59
2024/04/02 07:42:24;;;;;;;80.55;76.55;;;;;;;;;;5062007;28;20028;-59
2024/04/02 07:44:50;;;;;;;82.40;78.32;;;;;;;;;;5061553;28;20093;-59
2024/04/02 07:47:15;;;;;;;94.32;89.65;;;;;;;;;;5061752;28;20132;-59
2024/04/02 07:49:40;;;;;;;89.72;85.22;;;;;;;;;;5061785;28;20048;-59
2024/04/02 07:52:06;;;;;;;67.68;64.28;;;;;;;;;;5064820;28;20033;-59
2024/04/02 07:54:31;;;;;;;69.20;65.60;;;;;;;;;;5044053;28;20110;-59
2024/04/02 07:56:56;;;;;;;59.00;56.00;;;;;;;;;;5061217;28;20048;-59
2024/04/02 07:59:23;;;;;;;70.03;66.18;;;;;;;;;;5062267;28;20032;-59
2024/04/02 08:01:49;;;;;;;72.28;68.68;;;;;;;;;;5061422;28;20513;-60
2024/04/02 08:04:15;;;;;;;70.97;67.45;;;;;;;;;;5045502;28;20051;-59
2024/04/02 08:06:42;;;;;;;75.15;71.45;;;;;;;;;;5062175;28;20029;-59
2024/04/02 08:09:08;;;;;;;59.20;56.22;;;;;;;;;;5062574;28;20173;-59
2024/04/02 08:11:33;;;;;;;62.75;59.63;;;;;;;;;;5062428;28;20068;-59
2024/04/02 08:13:59;;;;;;;51.03;48.42;;;;;;;;;;5059177;28;20051;-60
2024/04/02 08:16:24;;;;;;;49.85;47.35;;;;;;;;;;5061363;28;20071;-59
2024/04/02 08:18:49;;;;;;;51.00;48.40;;;;;;;;;;5061412;28;20060;-59
2024/04/02 08:21:15;;;;;;;54.70;51.95;;;;;;;;;;5062729;28;20035;-60
2024/04/02 08:23:40;;;;;;;57.00;54.10;;;;;;;;;;5061121;28;20076;-59
2024/04/02 08:26:06;;;;;;;63.22;60.05;;;;;;;;;;5072650;28;20141;-59
2024/04/02 08:28:32;;;;;;;62.05;58.83;;;;;;;;;;5061896;28;20505;-60
2024/04/02 08:30:57;;;;;;;73.28;69.60;;;;;;;;;;5061264;28;20098;-59
2024/04/02 08:33:23;;;;;;;68.95;65.45;;;;;;;;;;5044902;28;20036;-60
2024/04/02 08:35:51;;;;;;;69.20;65.50;;;;;;;;;;5061795;28;20045;-59
2024/04/02 08:38:17;;;;;;;77.93;74.03;;;;;;;;;;5058609;28;20033;-59
2024/04/02 08:40:50;;;;;;;69.28;65.80;;;;;;;;;;5061441;28;20032;-59
2024/04/02 08:43:16;;;;;;;62.72;59.53;;;;;;;;;;5061530;28;20106;-59
2024/04/02 08:45:43;;;;;;;70.78;67.25;;;;;;;;;;5043177;28;20041;-60
2024/04/02 08:48:10;;;;;;;62.28;59.17;;;;;;;;;;5060358;28;20430;-60
2024/04/02 08:50:37;;;;;;;63.85;60.55;;;;;;;;;;5059733;28;20120;-60
2024/04/02 08:53:03;;;;;;;60.38;57.38;;;;;;;;;;5058965;28;20067;-62
2024/04/02 08:55:28;;;;;;;59.95;56.95;;;;;;;;;;5059990;28;20020;-60
2024/04/02 08:57:55;;;;;;;61.45;58.15;;;;;;;;;;5061331;28;20445;-60
2024/04/02 09:00:23;;;;;;;59.97;56.95;;;;;;;;;;5061150;28;20062;-60
2024/04/02 09:02:48;;;;;;;68.20;64.80;;;;;;;;;;5060331;28;20112;-60
2024/04/02 09:05:14;;;;;;;68.57;65.07;;;;;;;;;;5060939;28;20455;-60
2024/04/02 09:07:39;;;;;;;84.95;80.63;;;;;;;;;;5062814;28;20386;-60
2024/04/02 09:10:05;;;;;;;75.25;71.10;;;;;;;;;;5060554;28;20089;-60
2024/04/02 09:12:31;;;;;;;78.15;74.20;;;;;;;;;;5059605;28;20548;-61
2024/04/02 09:14:58;;;;;;;75.82;71.88;;;;;;;;;;5061665;28;20477;-60
2024/04/02 09:17:24;;;;;;;105.85;100.55;;;;;;;;;;5046882;28;20040;-60
2024/04/02 09:19:50;;;;;;;97.20;92.30;;;;;;;;;;5040763;28;20041;-61
2024/04/02 09:22:17;;;;;;;89.80;85.28;;;;;;;;;;5062769;28;20102;-60
2024/04/02 09:24:42;;;;;;;77.63;73.70;;;;;;;;;;5062048;28;20040;-61
2024/04/02 09:27:07;;;;;;;92.88;88.28;;;;;;;;;;5058664;28;20397;-60
2024/04/02 09:29:33;;;;;;;82.70;78.35;;;;;;;;;;5059971;28;20448;-60
2024/04/02 09:31:58;;;;;;;96.35;91.45;;;;;;;;;;5042304;28;20550;-58
2024/04/02 09:34:26;;;;;;;91.60;86.40;;;;;;;;;;5059431;28;20032;-58
2024/04/02 09:37:05;;;;;;;78.75;74.55;;;;;;;;;;5061190;28;20036;-58
2024/04/02 09:39:31;;;;;;;89.72;85.18;;;;;;;;;;5059637;28;20067;-58
2024/04/02 09:41:57;;;;;;;110.55;105.07;;;;;;;;;;5060613;28;20032;-60
2024/04/02 09:44:25;;;;;;;82.28;78.20;;;;;;;;;;5060021;28;20147;-60
2024/04/02 09:46:51;;;;;;;76.95;73.05;;;;;;;;;;5060638;28;20033;-59
2024/04/02 09:49:20;;;;;;;77.20;73.13;;;;;;;;;;5060782;28;20047;-59
2024/04/02 09:51:47;;;;;;;62.40;59.22;;;;;;;;;;5060717;28;20029;-59
2024/04/02 09:54:12;;;;;;;57.53;53.28;;;;;;;;;;5059320;28;20474;-58
2024/04/02 09:56:38;;;;;;;53.10;50.40;;;;;;;;;;5060608;28;20032;-58
2024/04/02 09:59:05;;;;;;;55.53;52.72;;;;;;;;;;5060324;28;20071;-58
2024/04/02 10:01:33;;;;;;;56.50;53.65;;;;;;;;;;5060202;28;20032;-58
2024/04/02 10:04:03;;;;;;;61.33;58.25;;;;;;;;;;5059663;28;20031;-59
2024/04/02 10:06:32;;;;;;;67.07;63.55;;;;;;;;;;5059295;28;20032;-58
2024/04/02 10:08:59;;;;;;;77.68;73.80;;;;;;;;;;5060418;28;20036;-58
2024/04/02 10:11:35;;;;;;;75.25;71.45;;;;;;;;;;5058495;28;20106;-58
2024/04/02 10:14:02;;;;;;;66.35;63.05;;;;;;;;;;5059240;28;20075;-59
2024/04/02 10:16:35;;;;;;;66.40;63.10;;;;;;;;;;5060978;28;20036;-59
2024/04/02 10:19:01;;;;;;;55.00;52.22;;;;;;;;;;5043283;28;20493;-59
2024/04/02 10:21:27;;;;;;;50.97;48.38;;;;;;;;;;5062100;28;20513;-59
2024/04/02 10:23:54;;;;;;;67.50;64.13;;;;;;;;;;5058642;28;20032;-58
2024/04/02 10:26:21;;;;;;;53.72;50.97;;;;;;;;;;5046340;28;20048;-58
2024/04/02 10:28:48;;;;;;;49.05;46.55;;;;;;;;;;5058976;28;20036;-59
2024/04/02 10:31:17;;;;;;;57.42;54.53;;;;;;;;;;5061226;28;20040;-59
2024/04/02 10:33:43;;;;;;;52.42;49.72;;;;;;;;;;5057511;28;20043;-58
2024/04/02 10:36:11;;;;;;;55.20;52.40;;;;;;;;;;5060163;28;20028;-58
2024/04/02 10:38:36;;;;;;;52.80;50.13;;;;;;;;;;5058975;28;20075;-58
2024/04/02 10:41:02;;;;;;;57.15;54.25;;;;;;;;;;5057843;28;20044;-59
2024/04/02 10:43:27;;;;;;;55.67;52.88;;;;;;;;;;5062155;28;20123;-58
2024/04/02 10:45:54;;;;;;;58.05;55.15;;;;;;;;;;5044523;28;20123;-58
2024/04/02 10:48:19;;;;;;;58.05;55.15;;;;;;;;;;5062134;28;20041;-59
2024/04/02 10:50:45;;;;;;;62.50;59.35;;;;;;;;;;5064243;28;20024;-59
2024/04/02 10:53:10;;;;;;;68.22;64.43;;;;;;;;;;5063100;28;21082;-58
2024/04/02 10:55:35;;;;;;;62.10;58.72;;;;;;;;;;5063333;28;20493;-58
2024/04/02 10:58:02;;;;;;;55.55;52.75;;;;;;;;;;5044097;28;20304;-58
2024/04/02 11:00:28;;;;;;;55.58;52.78;;;;;;;;;;5063377;28;20036;-58
2024/04/02 11:02:53;;;;;;;51.90;49.30;;;;;;;;;;5062869;28;20580;-59
2024/04/02 11:05:19;;;;;;;51.22;48.63;;;;;;;;;;5064665;28;20043;-58
2024/04/02 11:07:45;;;;;;;58.65;55.58;;;;;;;;;;5063201;28;20386;-58
2024/04/02 11:10:11;;;;;;;53.97;51.17;;;;;;;;;;5062164;28;20041;-58
2024/04/02 11:12:37;;;;;;;57.33;54.42;;;;;;;;;;5061601;28;20466;-58
2024/04/02 11:15:06;;;;;;;68.70;65.10;;;;;;;;;;5046481;28;20093;-59
2024/04/02 11:17:32;;;;;;;63.67;60.47;;;;;;;;;;5063098;28;20064;-61
2024/04/02 11:19:57;;;;;;;65.15;61.85;;;;;;;;;;5064031;28;20063;-58
2024/04/02 11:25:15;;;;;;;71.53;67.97;;;;;;;;;;5062131;28;20736;-59
2024/04/02 11:27:42;;;;;;;75.22;71.47;;;;;;;;;;5062427;28;20043;-58
2024/04/02 11:30:13;;;;;;;71.85;67.97;;;;;;;;;;5064057;28;20032;-60
2024/04/02 11:32:39;;;;;;;72.13;68.53;;;;;;;;;;5061374;28;20060;-60
2024/04/02 11:35:13;;;;;;;81.97;77.85;;;;;;;;;;5062884;28;20106;-59
2024/04/02 11:37:39;;;;;;;57.40;54.53;;;;;;;;;;5062784;28;20038;-58
2024/04/02 11:40:06;;;;;;;56.47;53.65;;;;;;;;;;5063366;28;20446;-58
2024/04/02 11:42:31;;;;;;;54.25;51.35;;;;;;;;;;5061593;28;20124;-58
2024/04/02 11:45:00;;;;;;;67.63;64.22;;;;;;;;;;5063093;28;20116;-58
2024/04/02 11:47:27;;;;;;;51.63;49.00;;;;;;;;;;5063511;28;20028;-59
2024/04/02 11:49:52;;;;;;;53.33;50.63;;;;;;;;;;5061952;28;20082;-60
2024/04/02 11:52:17;;;;;;;49.22;46.33;;;;;;;;;;5062543;28;20044;-60
2024/04/02 11:54:44;;;;;;;48.30;45.90;;;;;;;;;;5062121;28;20040;-60
2024/04/02 12:00:11;;;;;;;60.40;57.40;;;;;;;;;;5059874;28;20101;-58
2024/04/02 12:02:46;;;;;;;67.03;63.70;;;;;;;;;;5060713;28;20071;-59
2024/04/02 12:05:12;;;;;;;59.53;56.50;;;;;;;;;;5061368;28;20724;-60
2024/04/02 12:07:38;;;;;;;65.68;62.38;;;;;;;;;;5063345;28;20040;-58
2024/04/02 12:10:05;;;;;;;68.53;65.13;;;;;;;;;;5062307;28;20883;-60
2024/04/02 12:12:31;;;;;;;59.25;56.28;;;;;;;;;;5039976;28;20047;-60
2024/04/02 12:14:57;;;;;;;67.90;64.25;;;;;;;;;;5057776;28;20040;-61
2024/04/02 12:17:23;;;;;;;63.75;60.58;;;;;;;;;;5046345;28;20652;-60
2024/04/02 12:19:50;;;;;;;62.88;59.67;;;;;;;;;;5057477;28;20040;-60
2024/04/02 12:22:15;;;;;;;63.85;60.67;;;;;;;;;;5060679;28;20078;-60
2024/04/02 12:24:41;;;;;;;67.22;63.88;;;;;;;;;;5058443;28;20024;-60
2024/04/02 12:27:06;;;;;;;63.63;60.40;;;;;;;;;;5058500;28;20040;-61
2024/04/02 12:29:32;;;;;;;65.75;62.47;;;;;;;;;;5059534;28;20032;-60
2024/04/02 12:31:59;;;;;;;67.38;63.97;;;;;;;;;;5057742;28;20438;-60
2024/04/02 12:34:26;;;;;;;65.72;62.33;;;;;;;;;;5058305;28;20052;-60
2024/04/02 12:36:52;;;;;;;69.00;65.57;;;;;;;;;;5061047;28;20435;-61
2024/04/02 12:39:18;;;;;;;70.70;67.15;;;;;;;;;;5061172;28;20434;-61
2024/04/02 12:41:43;;;;;;;73.28;69.63;;;;;;;;;;5045124;28;20073;-59
2024/04/02 12:44:08;;;;;;;57.95;54.88;;;;;;;;;;5060156;28;20442;-62
2024/04/02 12:46:34;;;;;;;76.28;72.47;;;;;;;;;;5046103;28;20131;-62
2024/04/02 12:49:04;;;;;;;82.10;77.80;;;;;;;;;;5061943;28;20101;-58
2024/04/02 12:51:30;;;;;;;84.60;80.40;;;;;;;;;;5059228;28;20060;-58
2024/04/02 12:53:55;;;;;;;104.20;99.00;;;;;;;;;;5061222;28;20067;-61
2024/04/02 12:56:20;;;;;;;135.38;128.63;;;;;;;;;;5061403;28;20359;-61
2024/04/02 12:58:46;;;;;;;203.35;193.20;;;;;;;;;;5063173;28;20033;-61
2024/04/02 13:01:11;;;;;;;377.95;358.15;;;;;;;;;;5060490;28;20952;-61
2024/04/02 13:03:37;;;;;;;315.90;299.90;;;;;;;;;;5061024;28;20486;-61
2024/04/02 13:06:05;;;;;;;315.70;298.83;;;;;;;;;;5061563;28;20040;-62
2024/04/02 13:08:30;;;;;;;345.70;327.75;;;;;;;;;;5059047;28;20142;-61
2024/04/02 13:10:56;;;;;;;283.08;269.08;;;;;;;;;;5060517;28;20564;-58
2024/04/02 13:13:21;;;;;;;283.85;269.65;;;;;;;;;;5061104;28;20036;-59
2024/04/02 13:15:46;;;;;;;337.05;319.95;;;;;;;;;;5042086;28;20066;-59
2024/04/02 13:18:11;;;;;;;324.30;308.00;;;;;;;;;;5058388;28;20072;-59
2024/04/02 13:20:39;;;;;;;174.63;165.88;;;;;;;;;;5062202;28;20123;-59
2024/04/02 13:23:05;;;;;;;331.80;315.05;;;;;;;;;;5059764;28;20646;-59
2024/04/02 13:25:31;;;;;;;285.63;271.38;;;;;;;;;;5061816;28;20040;-59
2024/04/02 13:27:56;;;;;;;248.95;236.63;;;;;;;;;;5061384;28;20047;-58
2024/04/02 13:30:23;;;;;;;100.35;95.30;;;;;;;;;;5058787;28;20146;-62
2024/04/02 13:32:48;;;;;;;88.43;83.78;;;;;;;;;;5061133;28;20528;-60
2024/04/02 13:35:18;;;;;;;104.13;98.53;;;;;;;;;;5060336;28;20037;-58
2024/04/02 13:37:44;;;;;;;258.42;245.63;;;;;;;;;;5060734;28;20029;-57
2024/04/02 13:40:10;;;;;;;208.65;198.10;;;;;;;;;;5062094;28;20498;-58
2024/04/02 13:42:36;;;;;;;207.50;197.15;;;;;;;;;;5044454;28;21184;-59
2024/04/02 13:45:01;;;;;;;233.00;221.43;;;;;;;;;;5060587;28;20066;-60
2024/04/02 13:47:26;;;;;;;195.70;185.95;;;;;;;;;;5060114;28;20082;-61
2024/04/02 13:49:52;;;;;;;133.93;127.25;;;;;;;;;;5057928;28;20086;-61
2024/04/02 13:52:17;;;;;;;136.60;129.75;;;;;;;;;;5058526;28;20044;-59
2024/04/02 13:54:46;;;;;;;108.15;102.75;;;;;;;;;;5061426;28;20115;-58
2024/04/02 13:57:11;;;;;;;168.02;159.50;;;;;;;;;;5060360;28;21012;-58
2024/04/02 13:59:36;;;;;;;197.73;187.85;;;;;;;;;;5060669;28;20056;-58
2024/04/02 14:02:01;;;;;;;103.32;98.10;;;;;;;;;;5061483;28;20045;-58
2024/04/02 14:04:27;;;;;;;175.35;166.52;;;;;;;;;;5057959;28;20038;-58
2024/04/02 14:06:52;;;;;;;107.10;101.72;;;;;;;;;;5060674;28;20374;-58
2024/04/02 14:09:17;;;;;;;128.75;122.30;;;;;;;;;;5061535;28;20702;-58
2024/04/02 14:11:43;;;;;;;122.55;116.40;;;;;;;;;;5059938;28;20032;-58
2024/04/02 14:14:08;;;;;;;104.43;99.10;;;;;;;;;;5061109;28;20934;-58